Akashi — JM6695 — position and weather

sailwx.info

Track history (hours):
 
Tides and Currents Weather Stations Pressure Air Temp Water Temp Dewpoint Dewpoint Depression Visibility Wind Speed Wind Dir Waves Ship Positions

Akashi

Last reported at 2018-Jun-22 09:39 UTC. Time now 2018-Jun-23 10:15 UTC.
Position N 33°46' E 134°45'.

Length 75 m; draft 5 m.

Type: Cargo ship. MMSI: 431301627.

Date/timePositionNaut miles runAvg speedWind from/ knotsBaromVisibWave heightAir tempDewpointWater temp
2018-Jun-22 09:39N 33°46' E 134°45'1211.0
2018-Jun-22 08:33N 33°57' E 134°52'212.1
2018-Jun-22 08:25N 33°58' E 134°52'511.8
2018-Jun-22 08:00N 34°03' E 134°54'611.9
2018-Jun-22 07:30N 34°09' E 134°56'612.4
2018-Jun-22 07:00N 34°15' E 134°58'611.3
2018-Jun-22 06:31N 34°20' E 134°59'612.3
2018-Jun-22 06:00N 34°25' E 135°03'612.8
2018-Jun-22 05:30N 34°30' E 135°08'612.8
2018-Jun-22 05:00N 34°35' E 135°13'4 7.5
2018-Jun-22 04:28N 34°39' E 135°15'0 0.0
2018-Jun-22 04:00N 34°39' E 135°15'1 1.9
2018-Jun-22 03:30N 34°40' E 135°15'2 3.1
2018-Jun-22 03:00N 34°41' E 135°17'0 0.2
2018-Jun-22 02:30N 34°41' E 135°17'0 0.5
2018-Jun-22 02:00N 34°41' E 135°16'2 4.0
2018-Jun-22 01:30N 34°40' E 135°14'0 0.0
2018-Jun-22 01:00N 34°40' E 135°14'0 0.0
2018-Jun-22 00:30N 34°40' E 135°14'0 0.0
2018-Jun-22 00:00N 34°40' E 135°14'1 1.8
2018-Jun-21 23:30N 34°39' E 135°15'0 0.9
2018-Jun-21 23:00N 34°39' E 135°15'0 0.6
2018-Jun-21 22:28N 34°39' E 135°15'0 0.0
2018-Jun-21 21:55N 34°39' E 135°15'0 0.0
2018-Jun-21 21:10N 34°39' E 135°15'0 0.0
2018-Jun-21 20:55N 34°39' E 135°15'0 0.0
2018-Jun-21 20:25N 34°39' E 135°15'0 0.0
2018-Jun-21 19:55N 34°39' E 135°15'0 0.0
2018-Jun-21 19:25N 34°39' E 135°15'0 0.0
2018-Jun-21 18:49N 34°39' E 135°15'0 0.0
2018-Jun-21 18:25N 34°39' E 135°15'0 0.1
2018-Jun-21 17:58N 34°39' E 135°15'0 0.0
2018-Jun-21 17:25N 34°39' E 135°15'0 0.0
2018-Jun-21 16:55N 34°39' E 135°15'0 0.0
2018-Jun-21 16:19N 34°39' E 135°15'1 3.1
2018-Jun-21 16:01N 34°38' E 135°14'611.6
2018-Jun-21 15:31N 34°36' E 135°08'611.0
2018-Jun-21 14:58N 34°37' E 135°01'612.1
2018-Jun-21 14:26N 34°35' E 134°53'512.4
2018-Jun-21 14:00N 34°33' E 134°47'612.2
2018-Jun-21 13:30N 34°30' E 134°41'612.1
2018-Jun-21 13:00N 34°28' E 134°34'611.9
2018-Jun-21 12:28N 34°26' E 134°27'712.0
2018-Jun-21 11:52N 34°24' E 134°18'11 0.4
2018-Jun-20 08:56N 34°28' E 134°30'1712.9
2018-Jun-20 07:36N 34°35' E 134°50'113.1
2018-Jun-20 07:30N 34°35' E 134°51'713.2
2018-Jun-20 06:59N 34°38' E 134°59'612.3
2018-Jun-20 06:30N 34°36' E 135°06'612.4
2018-Jun-20 05:59N 34°36' E 135°14'612.4
2018-Jun-20 05:30N 34°37' E 135°21'4 7.2
2018-Jun-20 05:00N 34°38' E 135°25'0 0.0
2018-Jun-20 04:29N 34°38' E 135°25'2 4.5
2018-Jun-20 04:00N 34°37' E 135°22'3 6.2
2018-Jun-20 03:30N 34°37' E 135°19'5 9.6
2018-Jun-20 03:00N 34°40' E 135°14'0 0.1
2018-Jun-20 02:25N 34°40' E 135°14'0 0.0
2018-Jun-20 02:00N 34°40' E 135°14'0 0.0
2018-Jun-20 01:28N 34°40' E 135°14'2 5.4
2018-Jun-20 01:01N 34°41' E 135°17'0 0.9
2018-Jun-20 00:30N 34°41' E 135°16'2 3.8
2018-Jun-20 00:00N 34°39' E 135°15'0 0.0
2018-Jun-19 23:30N 34°39' E 135°15'0 0.9
2018-Jun-19 23:00N 34°39' E 135°15'0 0.0
2018-Jun-19 22:29N 34°39' E 135°15'0 0.0
2018-Jun-19 21:54N 34°39' E 135°15'0 0.1
2018-Jun-19 21:27N 34°39' E 135°15'0 0.1
2018-Jun-19 20:57N 34°39' E 135°15'0 0.0
2018-Jun-19 20:27N 34°39' E 135°15'0 0.0
2018-Jun-19 19:45N 34°39' E 135°15'0 0.0
2018-Jun-19 19:27N 34°39' E 135°15'0 0.0
2018-Jun-19 18:57N 34°39' E 135°15'0 0.0
2018-Jun-19 18:27N 34°39' E 135°15'0 0.0
2018-Jun-19 18:00N 34°39' E 135°15'0 0.0
2018-Jun-19 17:27N 34°39' E 135°15'0 0.0
2018-Jun-19 16:57N 34°39' E 135°15'0 0.0
2018-Jun-19 16:27N 34°39' E 135°15'1 1.9
2018-Jun-19 16:01N 34°38' E 135°15'612.0
2018-Jun-19 15:30N 34°36' E 135°08'5 9.6
2018-Jun-19 15:01N 34°36' E 135°02'5 8.2
2018-Jun-19 14:26N 34°36' E 134°56'410.0
2018-Jun-19 14:00N 34°34' E 134°52'511.0
2018-Jun-19 13:31N 34°32' E 134°46'611.8
2018-Jun-19 13:01N 34°30' E 134°39'612.2
2018-Jun-19 12:30N 34°28' E 134°32'612.2
2018-Jun-19 12:00N 34°26' E 134°25'5 0.2
2018-Jun-18 11:33N 34°28' E 134°31'1912.1
2018-Jun-18 09:59N 34°35' E 134°52'510.6
2018-Jun-18 09:30N 34°37' E 134°58'4 8.4
2018-Jun-18 09:00N 34°36' E 135°03'510.2
2018-Jun-18 08:30N 34°36' E 135°09'612.6
2018-Jun-18 08:00N 34°36' E 135°17'612.1
2018-Jun-18 07:30N 34°38' E 135°24'1 2.0
2018-Jun-18 07:00N 34°38' E 135°25'4 5.9
2018-Jun-18 06:17N 34°36' E 135°20'312.2
2018-Jun-18 06:00N 34°38' E 135°17'3 5.6
2018-Jun-18 05:30N 34°40' E 135°14'0 0.5
2018-Jun-18 05:00N 34°40' E 135°14'1 1.6
2018-Jun-18 04:23N 34°39' E 135°15'0 0.0
2018-Jun-18 03:59N 34°39' E 135°15'0 0.0
2018-Jun-18 03:17N 34°39' E 135°15'0 0.0
2018-Jun-18 02:40N 34°39' E 135°15'0 0.4
2018-Jun-18 02:30N 34°39' E 135°15'0 0.7
2018-Jun-18 02:00N 34°39' E 135°15'0 0.0
2018-Jun-18 01:30N 34°39' E 135°15'0 0.0
2018-Jun-18 01:00N 34°39' E 135°15'0 0.0
2018-Jun-18 00:31N 34°39' E 135°15'2 4.6
2018-Jun-18 00:00N 34°41' E 135°17'0 0.6
2018-Jun-17 23:30N 34°41' E 135°16'1 2.5
2018-Jun-17 23:00N 34°41' E 135°15'2 3.1
2018-Jun-17 22:30N 34°40' E 135°13'0 0.0
2018-Jun-17 21:50N 34°40' E 135°13'0 0.0
2018-Jun-17 21:26N 34°40' E 135°13'0 0.0
2018-Jun-17 20:50N 34°40' E 135°13'0 0.0
2018-Jun-17 20:26N 34°40' E 135°13'0 0.0
2018-Jun-17 19:56N 34°40' E 135°13'0 0.0
2018-Jun-17 19:20N 34°40' E 135°13'0 0.0
2018-Jun-17 18:56N 34°40' E 135°13'0 0.0
2018-Jun-17 18:26N 34°40' E 135°13'0 0.0
2018-Jun-17 17:56N 34°40' E 135°13'0 0.0
2018-Jun-17 17:14N 34°40' E 135°13'0 0.0
2018-Jun-17 16:56N 34°40' E 135°13'0 0.0
2018-Jun-17 16:14N 34°40' E 135°13'0 0.0
2018-Jun-17 15:26N 34°40' E 135°13'0 0.0
2018-Jun-17 14:56N 34°40' E 135°13'0 0.0
2018-Jun-17 14:20N 34°40' E 135°13'0 0.0
2018-Jun-17 13:56N 34°40' E 135°13'0 0.0
2018-Jun-17 13:26N 34°40' E 135°13'0 0.0
2018-Jun-17 12:56N 34°40' E 135°13'0 0.0
2018-Jun-17 12:26N 34°40' E 135°13'0 0.0
2018-Jun-17 11:56N 34°40' E 135°13'0 0.0
2018-Jun-17 11:14N 34°40' E 135°13'0 0.0
2018-Jun-17 10:56N 34°40' E 135°13'0 0.0
2018-Jun-17 10:26N 34°40' E 135°13'0 0.0
2018-Jun-17 09:56N 34°40' E 135°13'0 0.0
2018-Jun-17 09:26N 34°40' E 135°13'0 0.0
2018-Jun-17 08:56N 34°40' E 135°13'0 0.0
2018-Jun-17 08:26N 34°40' E 135°13'0 0.0
2018-Jun-17 07:50N 34°40' E 135°13'0 0.0
2018-Jun-17 07:20N 34°40' E 135°13'0 0.0
2018-Jun-17 06:56N 34°40' E 135°13'0 0.0
2018-Jun-17 06:20N 34°40' E 135°13'0 0.0
2018-Jun-17 05:56N 34°40' E 135°13'0 0.0
2018-Jun-17 05:20N 34°40' E 135°13'0 0.0
2018-Jun-17 04:56N 34°40' E 135°13'0 0.0
2018-Jun-17 04:26N 34°40' E 135°13'0 0.0
2018-Jun-17 03:56N 34°40' E 135°13'0 0.0
2018-Jun-17 03:26N 34°40' E 135°13'0 0.0
2018-Jun-17 02:56N 34°40' E 135°13'0 0.0
2018-Jun-17 02:26N 34°40' E 135°13'0 0.0
2018-Jun-17 01:56N 34°40' E 135°13'0 0.0
2018-Jun-17 01:26N 34°40' E 135°13'0 0.0
2018-Jun-17 00:50N 34°40' E 135°13'0 0.0
2018-Jun-17 00:26N 34°40' E 135°13'0 0.6
2018-Jun-17 00:00N 34°41' E 135°13'3 5.9
2018-Jun-16 23:30N 34°38' E 135°14'611.5
2018-Jun-16 23:00N 34°35' E 135°07'612.2
2018-Jun-16 22:30N 34°37' E 135°00'612.4
2018-Jun-16 22:00N 34°35' E 134°53'612.3
2018-Jun-16 21:30N 34°32' E 134°46'611.8
2018-Jun-16 21:00N 34°30' E 134°40'611.9
2018-Jun-16 20:30N 34°28' E 134°33'611.8
2018-Jun-16 20:00N 34°26' E 134°26'4 0.1
2018-Jun-15 13:42N 34°25' E 134°22'312.9
2018-Jun-15 13:28N 34°26' E 134°25'613.1
2018-Jun-15 13:00N 34°28' E 134°32'1113.7
2018-Jun-15 12:14N 34°32' E 134°44'414.7
2018-Jun-15 11:57N 34°34' E 134°49'716.1
2018-Jun-15 11:29N 34°37' E 134°57'715.0
2018-Jun-15 11:00N 34°36' E 135°06'613.0
2018-Jun-15 10:31N 34°37' E 135°13'2 4.3
2018-Jun-15 10:00N 34°39' E 135°15'0 0.0
2018-Jun-15 09:30N 34°39' E 135°15'0 0.0
2018-Jun-15 09:00N 34°39' E 135°15'1 1.1
2018-Jun-15 08:28N 34°39' E 135°15'0 0.0
2018-Jun-15 07:58N 34°39' E 135°15'0 0.0
2018-Jun-15 07:28N 34°39' E 135°15'0 0.1
2018-Jun-15 06:58N 34°39' E 135°15'0 0.0
2018-Jun-15 06:11N 34°39' E 135°15'0 0.0
2018-Jun-15 06:00N 34°39' E 135°15'0 1.0
2018-Jun-15 05:30N 34°39' E 135°15'1 2.2
2018-Jun-15 05:00N 34°40' E 135°14'0 0.0
2018-Jun-15 04:30N 34°40' E 135°14'0 0.0
2018-Jun-15 04:00N 34°40' E 135°14'0 0.0
2018-Jun-15 03:18N 34°40' E 135°14'0 0.0
2018-Jun-15 02:55N 34°40' E 135°14'2 4.3
2018-Jun-15 02:30N 34°41' E 135°16'1 1.4
2018-Jun-15 02:00N 34°41' E 135°17'0 0.0
2018-Jun-15 01:30N 34°41' E 135°17'1 1.2
2018-Jun-15 01:00N 34°41' E 135°16'2 3.8
2018-Jun-15 00:30N 34°39' E 135°15'0 0.0
2018-Jun-14 23:59N 34°39' E 135°15'1 1.3
2018-Jun-14 23:30N 34°39' E 135°15'0 0.0
2018-Jun-14 22:58N 34°39' E 135°15'0 0.0
2018-Jun-14 22:28N 34°39' E 135°15'0 0.0
2018-Jun-14 21:28N 34°39' E 135°15'0 0.0
2018-Jun-14 20:58N 34°39' E 135°15'0 0.0
2018-Jun-14 20:28N 34°39' E 135°15'0 0.1
2018-Jun-14 19:46N 34°39' E 135°15'0 0.0
2018-Jun-14 19:28N 34°39' E 135°15'0 0.0
2018-Jun-14 18:58N 34°39' E 135°15'0 0.0
2018-Jun-14 18:28N 34°39' E 135°15'0 0.0
2018-Jun-14 17:58N 34°39' E 135°15'0 0.1
2018-Jun-14 17:31N 34°39' E 135°15'4 8.1
2018-Jun-14 17:00N 34°37' E 135°11'611.9
2018-Jun-14 16:30N 34°35' E 135°04'911.6
2018-Jun-14 15:43N 34°35' E 134°53'211.2
2018-Jun-14 15:30N 34°34' E 134°50'510.5
2018-Jun-14 15:00N 34°32' E 134°44'611.0
2018-Jun-14 14:30N 34°30' E 134°38'511.2
2018-Jun-14 14:00N 34°28' E 134°32'611.4
2018-Jun-14 13:26N 34°25' E 134°25'6 0.2
2018-Jun-13 12:08N 34°28' E 134°31'1714.2
2018-Jun-13 10:54N 34°35' E 134°51'716.2
2018-Jun-13 10:30N 34°37' E 134°58'714.7
2018-Jun-13 10:00N 34°36' E 135°07'612.6
2018-Jun-13 09:30N 34°37' E 135°14'712.6
2018-Jun-13 08:58N 34°37' E 135°22'2 4.7
2018-Jun-13 08:28N 34°38' E 135°25'0 0.9
2018-Jun-13 08:00N 34°37' E 135°25'2 2.3
2018-Jun-13 07:20N 34°37' E 135°23'0 0.1
2018-Jun-13 06:56N 34°37' E 135°23'2 4.8
2018-Jun-13 06:27N 34°36' E 135°20'4 9.0
2018-Jun-13 06:01N 34°39' E 135°16'2 4.4
2018-Jun-13 05:30N 34°40' E 135°14'0 0.0
2018-Jun-13 05:00N 34°40' E 135°14'0 0.5
2018-Jun-13 04:30N 34°40' E 135°14'0 0.5
2018-Jun-13 04:00N 34°40' E 135°14'0 0.0
2018-Jun-13 03:30N 34°40' E 135°14'0 0.0
2018-Jun-13 03:00N 34°40' E 135°14'0 0.0
2018-Jun-13 02:30N 34°40' E 135°14'1 2.3
2018-Jun-13 02:00N 34°39' E 135°15'0 0.0
2018-Jun-13 01:30N 34°39' E 135°15'0 0.1
2018-Jun-13 01:00N 34°39' E 135°15'2 3.9
2018-Jun-13 00:30N 34°41' E 135°16'1 1.4
2018-Jun-13 00:00N 34°41' E 135°17'0 0.0
2018-Jun-12 23:30N 34°41' E 135°17'2 3.0
2018-Jun-12 22:59N 34°40' E 135°15'1 1.8
2018-Jun-12 22:21N 34°39' E 135°15'0 0.0
2018-Jun-12 22:00N 34°39' E 135°15'0 0.1
2018-Jun-12 21:27N 34°39' E 135°15'0 0.0
2018-Jun-12 20:54N 34°39' E 135°15'0 0.0
2018-Jun-12 20:26N 34°39' E 135°15'0 0.0
2018-Jun-12 20:00N 34°39' E 135°15'0 0.0
2018-Jun-12 19:26N 34°39' E 135°15'0 0.0
2018-Jun-12 18:57N 34°39' E 135°15'0 0.0
2018-Jun-12 18:27N 34°39' E 135°15'0 0.0
2018-Jun-12 17:57N 34°39' E 135°15'0 0.0
2018-Jun-12 17:27N 34°39' E 135°15'0 0.2
2018-Jun-12 16:57N 34°39' E 135°16'4 7.9
2018-Jun-12 16:30N 34°37' E 135°12'612.3
2018-Jun-12 16:01N 34°35' E 135°05'713.1
2018-Jun-12 15:29N 34°36' E 134°57'612.9
2018-Jun-12 15:00N 34°34' E 134°50'611.7
2018-Jun-12 14:27N 34°31' E 134°43'511.6
2018-Jun-12 14:00N 34°29' E 134°37'611.4
2018-Jun-12 13:27N 34°27' E 134°30'511.2
2018-Jun-12 13:00N 34°25' E 134°24'  
Track history (hours):
 
Tides and Currents Weather Stations Pressure Air Temp Water Temp Dewpoint Dewpoint Depression Visibility Wind Speed Wind Dir Waves Ship Positions

Akashi

Last reported at 2018-Jun-22 09:39 UTC. Time now 2018-Jun-23 10:15 UTC.
Position N 33°46' E 134°45'.

Length 75 m; draft 5 m.

Type: Cargo ship. MMSI: 431301627.

Date/timePositionNaut miles runAvg speedWind from/ knotsBaromVisibWave heightAir tempDewpointWater temp
2018-Jun-22 09:39N 33°46' E 134°45'1211.0
2018-Jun-22 08:33N 33°57' E 134°52'212.1
2018-Jun-22 08:25N 33°58' E 134°52'511.8
2018-Jun-22 08:00N 34°03' E 134°54'611.9
2018-Jun-22 07:30N 34°09' E 134°56'612.4
2018-Jun-22 07:00N 34°15' E 134°58'611.3
2018-Jun-22 06:31N 34°20' E 134°59'612.3
2018-Jun-22 06:00N 34°25' E 135°03'612.8
2018-Jun-22 05:30N 34°30' E 135°08'612.8
2018-Jun-22 05:00N 34°35' E 135°13'4 7.5
2018-Jun-22 04:28N 34°39' E 135°15'0 0.0
2018-Jun-22 04:00N 34°39' E 135°15'1 1.9
2018-Jun-22 03:30N 34°40' E 135°15'2 3.1
2018-Jun-22 03:00N 34°41' E 135°17'0 0.2
2018-Jun-22 02:30N 34°41' E 135°17'0 0.5
2018-Jun-22 02:00N 34°41' E 135°16'2 4.0
2018-Jun-22 01:30N 34°40' E 135°14'0 0.0
2018-Jun-22 01:00N 34°40' E 135°14'0 0.0
2018-Jun-22 00:30N 34°40' E 135°14'0 0.0
2018-Jun-22 00:00N 34°40' E 135°14'1 1.8
2018-Jun-21 23:30N 34°39' E 135°15'0 0.9
2018-Jun-21 23:00N 34°39' E 135°15'0 0.6
2018-Jun-21 22:28N 34°39' E 135°15'0 0.0
2018-Jun-21 21:55N 34°39' E 135°15'0 0.0
2018-Jun-21 21:10N 34°39' E 135°15'0 0.0
2018-Jun-21 20:55N 34°39' E 135°15'0 0.0
2018-Jun-21 20:25N 34°39' E 135°15'0 0.0
2018-Jun-21 19:55N 34°39' E 135°15'0 0.0
2018-Jun-21 19:25N 34°39' E 135°15'0 0.0
2018-Jun-21 18:49N 34°39' E 135°15'0 0.0
2018-Jun-21 18:25N 34°39' E 135°15'0 0.1
2018-Jun-21 17:58N 34°39' E 135°15'0 0.0
2018-Jun-21 17:25N 34°39' E 135°15'0 0.0
2018-Jun-21 16:55N 34°39' E 135°15'0 0.0
2018-Jun-21 16:19N 34°39' E 135°15'1 3.1
2018-Jun-21 16:01N 34°38' E 135°14'611.6
2018-Jun-21 15:31N 34°36' E 135°08'611.0
2018-Jun-21 14:58N 34°37' E 135°01'612.1
2018-Jun-21 14:26N 34°35' E 134°53'512.4
2018-Jun-21 14:00N 34°33' E 134°47'612.2
2018-Jun-21 13:30N 34°30' E 134°41'612.1
2018-Jun-21 13:00N 34°28' E 134°34'611.9
2018-Jun-21 12:28N 34°26' E 134°27'712.0
2018-Jun-21 11:52N 34°24' E 134°18'11 0.4
2018-Jun-20 08:56N 34°28' E 134°30'1712.9
2018-Jun-20 07:36N 34°35' E 134°50'113.1
2018-Jun-20 07:30N 34°35' E 134°51'713.2
2018-Jun-20 06:59N 34°38' E 134°59'612.3
2018-Jun-20 06:30N 34°36' E 135°06'612.4
2018-Jun-20 05:59N 34°36' E 135°14'612.4
2018-Jun-20 05:30N 34°37' E 135°21'4 7.2
2018-Jun-20 05:00N 34°38' E 135°25'0 0.0
2018-Jun-20 04:29N 34°38' E 135°25'2 4.5
2018-Jun-20 04:00N 34°37' E 135°22'3 6.2
2018-Jun-20 03:30N 34°37' E 135°19'5 9.6
2018-Jun-20 03:00N 34°40' E 135°14'0 0.1
2018-Jun-20 02:25N 34°40' E 135°14'0 0.0
2018-Jun-20 02:00N 34°40' E 135°14'0 0.0
2018-Jun-20 01:28N 34°40' E 135°14'2 5.4
2018-Jun-20 01:01N 34°41' E 135°17'0 0.9
2018-Jun-20 00:30N 34°41' E 135°16'2 3.8
2018-Jun-20 00:00N 34°39' E 135°15'0 0.0
2018-Jun-19 23:30N 34°39' E 135°15'0 0.9
2018-Jun-19 23:00N 34°39' E 135°15'0 0.0
2018-Jun-19 22:29N 34°39' E 135°15'0 0.0
2018-Jun-19 21:54N 34°39' E 135°15'0 0.1
2018-Jun-19 21:27N 34°39' E 135°15'0 0.1
2018-Jun-19 20:57N 34°39' E 135°15'0 0.0
2018-Jun-19 20:27N 34°39' E 135°15'0 0.0
2018-Jun-19 19:45N 34°39' E 135°15'0 0.0
2018-Jun-19 19:27N 34°39' E 135°15'0 0.0
2018-Jun-19 18:57N 34°39' E 135°15'0 0.0
2018-Jun-19 18:27N 34°39' E 135°15'0 0.0
2018-Jun-19 18:00N 34°39' E 135°15'0 0.0
2018-Jun-19 17:27N 34°39' E 135°15'0 0.0
2018-Jun-19 16:57N 34°39' E 135°15'0 0.0
2018-Jun-19 16:27N 34°39' E 135°15'1 1.9
2018-Jun-19 16:01N 34°38' E 135°15'612.0
2018-Jun-19 15:30N 34°36' E 135°08'5 9.6
2018-Jun-19 15:01N 34°36' E 135°02'5 8.2
2018-Jun-19 14:26N 34°36' E 134°56'410.0
2018-Jun-19 14:00N 34°34' E 134°52'511.0
2018-Jun-19 13:31N 34°32' E 134°46'611.8
2018-Jun-19 13:01N 34°30' E 134°39'612.2
2018-Jun-19 12:30N 34°28' E 134°32'612.2
2018-Jun-19 12:00N 34°26' E 134°25'5 0.2
2018-Jun-18 11:33N 34°28' E 134°31'1912.1
2018-Jun-18 09:59N 34°35' E 134°52'510.6
2018-Jun-18 09:30N 34°37' E 134°58'4 8.4
2018-Jun-18 09:00N 34°36' E 135°03'510.2
2018-Jun-18 08:30N 34°36' E 135°09'612.6
2018-Jun-18 08:00N 34°36' E 135°17'612.1
2018-Jun-18 07:30N 34°38' E 135°24'1 2.0
2018-Jun-18 07:00N 34°38' E 135°25'4 5.9
2018-Jun-18 06:17N 34°36' E 135°20'312.2
2018-Jun-18 06:00N 34°38' E 135°17'3 5.6
2018-Jun-18 05:30N 34°40' E 135°14'0 0.5
2018-Jun-18 05:00N 34°40' E 135°14'1 1.6
2018-Jun-18 04:23N 34°39' E 135°15'0 0.0
2018-Jun-18 03:59N 34°39' E 135°15'0 0.0
2018-Jun-18 03:17N 34°39' E 135°15'0 0.0
2018-Jun-18 02:40N 34°39' E 135°15'0 0.4
2018-Jun-18 02:30N 34°39' E 135°15'0 0.7
2018-Jun-18 02:00N 34°39' E 135°15'0 0.0
2018-Jun-18 01:30N 34°39' E 135°15'0 0.0
2018-Jun-18 01:00N 34°39' E 135°15'0 0.0
2018-Jun-18 00:31N 34°39' E 135°15'2 4.6
2018-Jun-18 00:00N 34°41' E 135°17'0 0.6
2018-Jun-17 23:30N 34°41' E 135°16'1 2.5
2018-Jun-17 23:00N 34°41' E 135°15'2 3.1
2018-Jun-17 22:30N 34°40' E 135°13'0 0.0
2018-Jun-17 21:50N 34°40' E 135°13'0 0.0
2018-Jun-17 21:26N 34°40' E 135°13'0 0.0
2018-Jun-17 20:50N 34°40' E 135°13'0 0.0
2018-Jun-17 20:26N 34°40' E 135°13'0 0.0
2018-Jun-17 19:56N 34°40' E 135°13'0 0.0
2018-Jun-17 19:20N 34°40' E 135°13'0 0.0
2018-Jun-17 18:56N 34°40' E 135°13'0 0.0
2018-Jun-17 18:26N 34°40' E 135°13'0 0.0
2018-Jun-17 17:56N 34°40' E 135°13'0 0.0
2018-Jun-17 17:14N 34°40' E 135°13'0 0.0
2018-Jun-17 16:56N 34°40' E 135°13'0 0.0
2018-Jun-17 16:14N 34°40' E 135°13'0 0.0
2018-Jun-17 15:26N 34°40' E 135°13'0 0.0
2018-Jun-17 14:56N 34°40' E 135°13'0 0.0
2018-Jun-17 14:20N 34°40' E 135°13'0 0.0
2018-Jun-17 13:56N 34°40' E 135°13'0 0.0
2018-Jun-17 13:26N 34°40' E 135°13'0 0.0
2018-Jun-17 12:56N 34°40' E 135°13'0 0.0
2018-Jun-17 12:26N 34°40' E 135°13'0 0.0
2018-Jun-17 11:56N 34°40' E 135°13'0 0.0
2018-Jun-17 11:14N 34°40' E 135°13'0 0.0
2018-Jun-17 10:56N 34°40' E 135°13'0 0.0
2018-Jun-17 10:26N 34°40' E 135°13'0 0.0
2018-Jun-17 09:56N 34°40' E 135°13'0 0.0
2018-Jun-17 09:26N 34°40' E 135°13'0 0.0
2018-Jun-17 08:56N 34°40' E 135°13'0 0.0
2018-Jun-17 08:26N 34°40' E 135°13'0 0.0
2018-Jun-17 07:50N 34°40' E 135°13'0 0.0
2018-Jun-17 07:20N 34°40' E 135°13'0 0.0
2018-Jun-17 06:56N 34°40' E 135°13'0 0.0
2018-Jun-17 06:20N 34°40' E 135°13'0 0.0
2018-Jun-17 05:56N 34°40' E 135°13'0 0.0
2018-Jun-17 05:20N 34°40' E 135°13'0 0.0
2018-Jun-17 04:56N 34°40' E 135°13'0 0.0
2018-Jun-17 04:26N 34°40' E 135°13'0 0.0
2018-Jun-17 03:56N 34°40' E 135°13'0 0.0
2018-Jun-17 03:26N 34°40' E 135°13'0 0.0
2018-Jun-17 02:56N 34°40' E 135°13'0 0.0
2018-Jun-17 02:26N 34°40' E 135°13'0 0.0
2018-Jun-17 01:56N 34°40' E 135°13'0 0.0
2018-Jun-17 01:26N 34°40' E 135°13'0 0.0
2018-Jun-17 00:50N 34°40' E 135°13'0 0.0
2018-Jun-17 00:26N 34°40' E 135°13'0 0.6
2018-Jun-17 00:00N 34°41' E 135°13'3 5.9
2018-Jun-16 23:30N 34°38' E 135°14'611.5
2018-Jun-16 23:00N 34°35' E 135°07'612.2
2018-Jun-16 22:30N 34°37' E 135°00'612.4
2018-Jun-16 22:00N 34°35' E 134°53'612.3
2018-Jun-16 21:30N 34°32' E 134°46'611.8
2018-Jun-16 21:00N 34°30' E 134°40'611.9
2018-Jun-16 20:30N 34°28' E 134°33'611.8
2018-Jun-16 20:00N 34°26' E 134°26'4 0.1
2018-Jun-15 13:42N 34°25' E 134°22'312.9
2018-Jun-15 13:28N 34°26' E 134°25'613.1
2018-Jun-15 13:00N 34°28' E 134°32'1113.7
2018-Jun-15 12:14N 34°32' E 134°44'414.7
2018-Jun-15 11:57N 34°34' E 134°49'716.1
2018-Jun-15 11:29N 34°37' E 134°57'715.0
2018-Jun-15 11:00N 34°36' E 135°06'613.0
2018-Jun-15 10:31N 34°37' E 135°13'2 4.3
2018-Jun-15 10:00N 34°39' E 135°15'0 0.0
2018-Jun-15 09:30N 34°39' E 135°15'0 0.0
2018-Jun-15 09:00N 34°39' E 135°15'1 1.1
2018-Jun-15 08:28N 34°39' E 135°15'0 0.0
2018-Jun-15 07:58N 34°39' E 135°15'0 0.0
2018-Jun-15 07:28N 34°39' E 135°15'0 0.1
2018-Jun-15 06:58N 34°39' E 135°15'0 0.0
2018-Jun-15 06:11N 34°39' E 135°15'0 0.0
2018-Jun-15 06:00N 34°39' E 135°15'0 1.0
2018-Jun-15 05:30N 34°39' E 135°15'1 2.2
2018-Jun-15 05:00N 34°40' E 135°14'0 0.0
2018-Jun-15 04:30N 34°40' E 135°14'0 0.0
2018-Jun-15 04:00N 34°40' E 135°14'0 0.0
2018-Jun-15 03:18N 34°40' E 135°14'0 0.0
2018-Jun-15 02:55N 34°40' E 135°14'2 4.3
2018-Jun-15 02:30N 34°41' E 135°16'1 1.4
2018-Jun-15 02:00N 34°41' E 135°17'0 0.0
2018-Jun-15 01:30N 34°41' E 135°17'1 1.2
2018-Jun-15 01:00N 34°41' E 135°16'2 3.8
2018-Jun-15 00:30N 34°39' E 135°15'0 0.0
2018-Jun-14 23:59N 34°39' E 135°15'1 1.3
2018-Jun-14 23:30N 34°39' E 135°15'0 0.0
2018-Jun-14 22:58N 34°39' E 135°15'0 0.0
2018-Jun-14 22:28N 34°39' E 135°15'0 0.0
2018-Jun-14 21:28N 34°39' E 135°15'0 0.0
2018-Jun-14 20:58N 34°39' E 135°15'0 0.0
2018-Jun-14 20:28N 34°39' E 135°15'0 0.1
2018-Jun-14 19:46N 34°39' E 135°15'0 0.0
2018-Jun-14 19:28N 34°39' E 135°15'0 0.0
2018-Jun-14 18:58N 34°39' E 135°15'0 0.0
2018-Jun-14 18:28N 34°39' E 135°15'0 0.0
2018-Jun-14 17:58N 34°39' E 135°15'0 0.1
2018-Jun-14 17:31N 34°39' E 135°15'4 8.1
2018-Jun-14 17:00N 34°37' E 135°11'611.9
2018-Jun-14 16:30N 34°35' E 135°04'911.6
2018-Jun-14 15:43N 34°35' E 134°53'211.2
2018-Jun-14 15:30N 34°34' E 134°50'510.5
2018-Jun-14 15:00N 34°32' E 134°44'611.0
2018-Jun-14 14:30N 34°30' E 134°38'511.2
2018-Jun-14 14:00N 34°28' E 134°32'611.4
2018-Jun-14 13:26N 34°25' E 134°25'6 0.2
2018-Jun-13 12:08N 34°28' E 134°31'1714.2
2018-Jun-13 10:54N 34°35' E 134°51'716.2
2018-Jun-13 10:30N 34°37' E 134°58'714.7
2018-Jun-13 10:00N 34°36' E 135°07'612.6
2018-Jun-13 09:30N 34°37' E 135°14'712.6
2018-Jun-13 08:58N 34°37' E 135°22'2 4.7
2018-Jun-13 08:28N 34°38' E 135°25'0 0.9
2018-Jun-13 08:00N 34°37' E 135°25'2 2.3
2018-Jun-13 07:20N 34°37' E 135°23'0 0.1
2018-Jun-13 06:56N 34°37' E 135°23'2 4.8
2018-Jun-13 06:27N 34°36' E 135°20'4 9.0
2018-Jun-13 06:01N 34°39' E 135°16'2 4.4
2018-Jun-13 05:30N 34°40' E 135°14'0 0.0
2018-Jun-13 05:00N 34°40' E 135°14'0 0.5
2018-Jun-13 04:30N 34°40' E 135°14'0 0.5
2018-Jun-13 04:00N 34°40' E 135°14'0 0.0
2018-Jun-13 03:30N 34°40' E 135°14'0 0.0
2018-Jun-13 03:00N 34°40' E 135°14'0 0.0
2018-Jun-13 02:30N 34°40' E 135°14'1 2.3
2018-Jun-13 02:00N 34°39' E 135°15'0 0.0
2018-Jun-13 01:30N 34°39' E 135°15'0 0.1
2018-Jun-13 01:00N 34°39' E 135°15'2 3.9
2018-Jun-13 00:30N 34°41' E 135°16'1 1.4
2018-Jun-13 00:00N 34°41' E 135°17'0 0.0
2018-Jun-12 23:30N 34°41' E 135°17'2 3.0
2018-Jun-12 22:59N 34°40' E 135°15'1 1.8
2018-Jun-12 22:21N 34°39' E 135°15'0 0.0
2018-Jun-12 22:00N 34°39' E 135°15'0 0.1
2018-Jun-12 21:27N 34°39' E 135°15'0 0.0
2018-Jun-12 20:54N 34°39' E 135°15'0 0.0
2018-Jun-12 20:26N 34°39' E 135°15'0 0.0
2018-Jun-12 20:00N 34°39' E 135°15'0 0.0
2018-Jun-12 19:26N 34°39' E 135°15'0 0.0
2018-Jun-12 18:57N 34°39' E 135°15'0 0.0
2018-Jun-12 18:27N 34°39' E 135°15'0 0.0
2018-Jun-12 17:57N 34°39' E 135°15'0 0.0
2018-Jun-12 17:27N 34°39' E 135°15'0 0.2
2018-Jun-12 16:57N 34°39' E 135°16'4 7.9
2018-Jun-12 16:30N 34°37' E 135°12'612.3
2018-Jun-12 16:01N 34°35' E 135°05'713.1
2018-Jun-12 15:29N 34°36' E 134°57'612.9
2018-Jun-12 15:00N 34°34' E 134°50'611.7
2018-Jun-12 14:27N 34°31' E 134°43'511.6
2018-Jun-12 14:00N 34°29' E 134°37'611.4
2018-Jun-12 13:27N 34°27' E 134°30'511.2
2018-Jun-12 13:00N 34°25' E 134°24'  

Dump ship's entire track history